Time;durP1;ratioP1;P1;durP2;ratioP2;P2;SDS_P1;SDS_P2;PMS_P1;PMS_P2;Temp;Humidity;BMP_temperature;BMP_pressure;BME280_temperature;BME280_humidity;BME280_pressure;Samples;Min_cycle;Max_cycle;Signal;HPM_P1;HPM_P2
2022/11/19 00:01:26;;;;;;;13.00;6.78;;;;;;;-3.43;100.00;100646.31;4970783;28;20176;-78
2022/11/19 00:03:53;;;;;;;10.02;7.05;;;;;;;-3.43;100.00;100642.06;4957702;28;20042;-78
2022/11/19 00:06:23;;;;;;;9.32;6.50;;;;;;;-3.47;100.00;100637.59;4956428;28;20050;-76
2022/11/19 00:08:50;;;;;;;9.52;6.97;;;;;;;-3.50;100.00;100637.47;4971752;28;20047;-80
2022/11/19 00:14:05;;;;;;;11.70;7.05;;;;;;;-3.59;100.00;100643.03;4964210;28;20043;-82
2022/11/19 00:16:32;;;;;;;11.23;7.18;;;;;;;-3.62;100.00;100642.00;4971887;28;20071;-77
2022/11/19 00:18:59;;;;;;;8.27;6.15;;;;;;;-3.66;100.00;100635.88;4967600;28;20050;-77
2022/11/19 00:21:26;;;;;;;12.57;7.38;;;;;;;-3.69;100.00;100641.72;4952767;28;20155;-77
2022/11/19 00:23:54;;;;;;;11.82;6.90;;;;;;;-3.71;100.00;100642.44;4954084;28;20134;-77
2022/11/19 00:26:21;;;;;;;9.43;7.20;;;;;;;-3.73;100.00;100642.38;4953625;28;20067;-76
2022/11/19 00:28:48;;;;;;;10.32;6.28;;;;;;;-3.74;100.00;100635.50;4966246;28;21118;-79
2022/11/19 00:31:16;;;;;;;13.30;6.93;;;;;;;-3.74;100.00;100642.28;4949208;28;20042;-75
2022/11/19 00:33:45;;;;;;;9.85;6.57;;;;;;;-3.75;100.00;100640.53;4950030;28;20105;-78
2022/11/19 00:36:14;;;;;;;10.95;6.28;;;;;;;-3.80;100.00;100642.00;4965254;28;20053;-76
2022/11/19 00:38:42;;;;;;;10.30;7.20;;;;;;;-3.85;100.00;100647.75;4964376;28;20092;-76
2022/11/19 00:41:08;;;;;;;10.77;7.00;;;;;;;-3.82;100.00;100649.56;4939137;28;20547;-76
2022/11/19 00:43:47;;;;;;;12.52;7.30;;;;;;;-3.80;100.00;100647.97;4969562;28;20046;-76
2022/11/19 00:46:16;;;;;;;11.23;7.20;;;;;;;-3.79;100.00;100649.75;4954421;28;20062;-79
2022/11/19 00:48:42;;;;;;;11.13;6.63;;;;;;;-3.80;100.00;100653.09;4953450;28;20051;-77
2022/11/19 00:51:10;;;;;;;10.35;5.88;;;;;;;-3.78;100.00;100653.16;4959026;28;20106;-78
2022/11/19 00:53:37;;;;;;;10.65;6.90;;;;;;;-3.83;100.00;100664.06;4973149;28;20066;-82
2022/11/19 00:56:11;;;;;;;11.48;6.72;;;;;;;-3.88;100.00;100660.38;4960483;28;20457;-83
2022/11/19 00:58:42;;;;;;;14.25;7.40;;;;;;;-3.89;100.00;100671.41;4970968;28;20133;-77
2022/11/19 01:01:10;;;;;;;11.65;7.70;;;;;;;-3.94;100.00;100672.00;4956677;28;20549;-78
2022/11/19 01:03:39;;;;;;;13.38;7.90;;;;;;;-3.94;100.00;100677.97;4969453;28;20031;-78
2022/11/19 01:06:06;;;;;;;10.88;7.50;;;;;;;-3.94;100.00;100675.41;4970811;28;20484;-75
2022/11/19 01:08:34;;;;;;;11.32;6.32;;;;;;;-3.93;100.00;100676.31;4935691;28;20077;-81
2022/11/19 01:11:14;;;;;;;13.02;8.00;;;;;;;-3.96;100.00;100679.59;4969148;28;20047;-76
2022/11/19 01:13:41;;;;;;;10.88;6.55;;;;;;;-3.93;100.00;100679.75;4969336;28;20054;-77
2022/11/19 01:16:15;;;;;;;12.38;6.97;;;;;;;-3.96;100.00;100683.81;4972262;28;20053;-80
2022/11/19 01:18:44;;;;;;;9.75;7.28;;;;;;;-4.01;100.00;100681.91;4952974;28;20059;-76
2022/11/19 01:21:12;;;;;;;18.23;8.30;;;;;;;-4.02;100.00;100686.94;4969422;28;20080;-77
2022/11/19 01:23:40;;;;;;;9.25;6.03;;;;;;;-4.01;100.00;100681.91;4954774;28;20682;-77
2022/11/19 01:26:08;;;;;;;11.25;6.50;;;;;;;-4.01;100.00;100687.03;4955615;28;20039;-76
2022/11/19 01:28:35;;;;;;;11.18;7.20;;;;;;;-4.00;100.00;100693.03;4937038;28;20047;-78
2022/11/19 01:31:12;;;;;;;10.30;6.80;;;;;;;-4.00;100.00;100687.94;4955929;28;20393;-78
2022/11/19 01:33:39;;;;;;;15.40;7.65;;;;;;;-4.04;100.00;100694.56;4954899;28;20163;-78
2022/11/19 01:36:18;;;;;;;14.95;8.07;;;;;;;-4.08;100.00;100689.19;4970307;28;20054;-76
2022/11/19 01:38:49;;;;;;;15.80;8.70;;;;;;;-4.10;100.00;100694.22;4951008;28;20070;-79
2022/11/19 01:41:19;;;;;;;15.45;7.93;;;;;;;-4.13;100.00;100703.41;4957678;28;20061;-77
2022/11/19 01:43:59;;;;;;;13.18;9.15;;;;;;;-4.17;100.00;100695.59;4952796;28;20039;-75
2022/11/19 01:46:36;;;;;;;15.52;9.27;;;;;;;-4.19;100.00;100704.84;4975163;28;20477;-79
2022/11/19 01:49:18;;;;;;;14.60;9.02;;;;;;;-4.21;100.00;100710.69;4956682;28;20157;-76
2022/11/19 01:52:00;;;;;;;12.40;7.97;;;;;;;-4.22;100.00;100704.72;4955987;28;20162;-77
2022/11/19 01:54:39;;;;;;;14.32;8.32;;;;;;;-4.26;100.00;100707.91;4953135;28;20107;-76
2022/11/19 01:57:10;;;;;;;15.25;8.25;;;;;;;-4.27;100.00;100705.28;4957122;28;20053;-76
2022/11/19 01:59:39;;;;;;;14.18;8.10;;;;;;;-4.32;100.00;100708.47;4958298;28;20068;-76
2022/11/19 02:02:06;;;;;;;15.05;8.05;;;;;;;-4.35;100.00;100712.56;4958398;28;20058;-76
2022/11/19 02:04:34;;;;;;;20.45;9.43;;;;;;;-4.40;100.00;100709.75;4961739;28;20046;-76
2022/11/19 02:07:02;;;;;;;17.70;8.55;;;;;;;-4.39;100.00;100713.19;4957728;28;20125;-75
2022/11/19 02:09:30;;;;;;;16.60;9.18;;;;;;;-4.40;100.00;100712.31;4956868;28;20062;-76
2022/11/19 02:12:47;;;;;;;16.90;9.23;;;;;;;-4.40;100.00;100711.44;4943011;28;20046;-76
2022/11/19 02:15:27;;;;;;;17.83;8.88;;;;;;;-4.39;100.00;100711.50;4949535;28;20142;-76
2022/11/19 02:17:56;;;;;;;13.52;8.95;;;;;;;-4.42;100.00;100719.03;4940515;28;20392;-77
2022/11/19 02:20:59;;;;;;;13.77;8.20;;;;;;;-4.43;100.00;100724.94;4971147;28;20072;-76
2022/11/19 02:23:53;;;;;;;15.50;8.10;;;;;;;-4.44;100.00;100727.41;4953249;28;20516;-80
2022/11/19 02:26:55;;;;;;;12.88;6.97;;;;;;;-4.48;100.00;100731.47;4971378;28;20039;-77
2022/11/19 02:29:30;;;;;;;16.70;8.13;;;;;;;-4.45;100.00;100740.97;4951429;28;20046;-77
2022/11/19 02:32:16;;;;;;;15.88;7.43;;;;;;;-4.48;100.00;100734.03;4951495;28;20047;-76
2022/11/19 02:35:06;;;;;;;15.68;6.97;;;;;;;-4.49;100.00;100739.94;4970230;28;20043;-76
2022/11/19 02:37:45;;;;;;;14.10;7.28;;;;;;;-4.51;100.00;100746.63;4953553;28;20078;-82
2022/11/19 02:40:34;;;;;;;15.70;7.38;;;;;;;-4.51;100.00;100746.63;4954094;28;20049;-79
2022/11/19 02:43:17;;;;;;;12.90;7.47;;;;;;;-4.55;100.00;100740.50;4956120;28;20106;-78
2022/11/19 02:45:59;;;;;;;12.23;7.18;;;;;;;-4.50;100.00;100743.28;4954887;28;20078;-76
2022/11/19 02:48:48;;;;;;;18.05;7.80;;;;;;;-4.54;100.00;100743.91;4955391;28;20481;-78
2022/11/19 02:51:18;;;;;;;14.23;7.78;;;;;;;-4.57;100.00;100747.19;4955998;28;20126;-76
2022/11/19 02:53:48;;;;;;;13.68;8.52;;;;;;;-4.58;100.00;100742.84;4956714;28;20081;-76
2022/11/19 02:56:48;;;;;;;12.45;7.80;;;;;;;-4.62;100.00;100740.06;4972108;28;20043;-76
2022/11/19 03:04:58;;;;;;;12.40;7.20;;;;;;;-4.68;100.00;100745.72;4960969;28;20038;-76
2022/11/19 03:07:25;;;;;;;10.65;7.78;;;;;;;-4.68;100.00;100741.50;4958561;28;20134;-77
2022/11/19 03:09:59;;;;;;;12.00;6.65;;;;;;;-4.68;100.00;100746.63;4966444;28;20154;-78
2022/11/19 03:16:40;;;;;;;16.48;7.90;;;;;;;-4.66;100.00;100746.69;4979238;28;20129;-78
2022/11/19 03:18:45;;;;;;;15.18;7.20;;;;;;;-4.67;100.00;100740.72;4956948;28;20121;-79
2022/11/19 03:21:47;;;;;;;11.30;6.97;;;;;;;-4.69;100.00;100749.09;4943140;28;20141;-78
2022/11/19 03:24:40;;;;;;;14.45;6.15;;;;;;;-4.73;100.00;100749.69;5126466;27;20421;-80
2022/11/19 03:27:30;;;;;;;10.50;6.30;;;;;;;-4.71;100.00;100750.66;5120831;27;20035;-76
2022/11/19 03:30:00;;;;;;;8.68;6.18;;;;;;;-4.71;100.00;100748.13;5118595;27;20067;-77
2022/11/19 03:32:41;;;;;;;11.65;6.47;;;;;;;-4.75;100.00;100757.28;5107302;27;20047;-77
2022/11/19 03:35:16;;;;;;;11.55;7.47;;;;;;;-4.76;100.00;100757.19;5138096;27;20054;-78
2022/11/19 03:37:46;;;;;;;14.05;7.70;;;;;;;-4.80;100.00;100763.81;5123503;27;20059;-77
2022/11/19 03:40:16;;;;;;;14.05;7.55;;;;;;;-4.78;100.00;100761.34;5120445;27;20047;-76
2022/11/19 03:42:51;;;;;;;10.65;6.05;;;;;;;-4.78;100.00;100772.44;5123880;27;20118;-76
2022/11/19 03:45:26;;;;;;;10.80;7.82;;;;;;;-4.84;100.00;100775.56;5119915;27;20035;-76
2022/11/19 03:47:55;;;;;;;8.60;5.95;;;;;;;-4.85;100.00;100770.34;5123774;27;20101;-77
2022/11/19 03:50:30;;;;;;;12.88;7.40;;;;;;;-4.82;100.00;100775.63;5105476;28;20051;-76
2022/11/19 03:52:59;;;;;;;9.85;6.90;;;;;;;-4.83;100.00;100776.41;5121368;27;20050;-76
2022/11/19 03:55:35;;;;;;;11.27;6.60;;;;;;;-4.82;100.00;100775.63;5121032;27;20134;-76
2022/11/19 03:58:05;;;;;;;10.80;6.60;;;;;;;-4.85;100.00;100772.88;5104360;28;20135;-77
2022/11/19 04:00:35;;;;;;;9.68;6.03;;;;;;;-4.88;100.00;100780.41;5120032;27;20469;-75
2022/11/19 04:03:02;;;;;;;11.00;7.05;;;;;;;-4.89;100.00;100789.75;5127517;27;20047;-75
2022/11/19 04:05:29;;;;;;;10.82;7.00;;;;;;;-4.92;100.00;100781.88;5124564;28;20065;-76
2022/11/19 04:07:55;;;;;;;11.27;7.25;;;;;;;-4.88;100.00;100788.06;5129263;27;20472;-79
2022/11/19 04:10:22;;;;;;;10.10;6.57;;;;;;;-4.90;100.00;100794.72;5120997;27;20065;-76
2022/11/19 04:12:48;;;;;;;10.40;6.53;;;;;;;-4.94;100.00;100796.25;5123019;27;20127;-78
2022/11/19 04:15:15;;;;;;;12.82;8.95;;;;;;;-4.95;100.00;100788.50;5122522;27;20740;-78
2022/11/19 04:17:41;;;;;;;11.60;7.07;;;;;;;-4.90;100.00;100797.28;5120922;27;20074;-78
2022/11/19 04:20:11;;;;;;;9.52;6.45;;;;;;;-4.89;100.00;100794.84;5105444;27;20404;-77
2022/11/19 04:22:38;;;;;;;12.98;7.40;;;;;;;-4.92;100.00;100798.91;5122563;27;20159;-77
2022/11/19 04:25:05;;;;;;;11.70;7.70;;;;;;;-4.94;100.00;100800.47;5122885;27;20103;-77
2022/11/19 04:27:32;;;;;;;13.13;7.80;;;;;;;-4.95;100.00;100798.69;5108312;28;20039;-80
2022/11/19 04:29:58;;;;;;;11.77;7.35;;;;;;;-4.96;100.00;100797.84;5124917;27;20039;-76
2022/11/19 04:32:25;;;;;;;15.30;7.00;;;;;;;-4.97;100.00;100795.19;5124105;27;20058;-77
2022/11/19 04:34:51;;;;;;;11.10;6.95;;;;;;;-4.98;100.00;100801.97;5118559;28;20050;-77
2022/11/19 04:37:18;;;;;;;9.63;7.23;;;;;;;-5.00;100.00;100808.69;5115074;27;20050;-76
2022/11/19 04:39:44;;;;;;;9.68;6.55;;;;;;;-4.97;100.00;100807.97;5111512;27;20051;-76
2022/11/19 04:42:11;;;;;;;11.27;7.18;;;;;;;-5.00;100.00;100809.53;5112314;27;20044;-75
2022/11/19 04:44:37;;;;;;;8.60;6.28;;;;;;;-5.02;100.00;100805.13;5109899;27;20162;-76
2022/11/19 04:47:07;;;;;;;9.68;7.90;;;;;;;-5.02;100.00;100813.69;5112995;28;20063;-80
2022/11/19 04:49:34;;;;;;;11.70;6.40;;;;;;;-5.05;100.00;100807.53;5110804;27;20117;-75
2022/11/19 04:52:00;;;;;;;9.52;6.38;;;;;;;-5.09;100.00;100811.56;5111191;27;20047;-78
2022/11/19 04:54:27;;;;;;;10.18;6.00;;;;;;;-5.12;100.00;100811.41;5112737;28;20043;-75
2022/11/19 04:56:54;;;;;;;8.70;6.57;;;;;;;-5.13;100.00;100817.31;5114181;28;20126;-75
2022/11/19 04:59:21;;;;;;;11.73;7.13;;;;;;;-5.19;100.00;100819.50;5113470;27;20048;-75
2022/11/19 05:01:48;;;;;;;9.63;6.47;;;;;;;-5.21;100.00;100819.41;5117004;27;20061;-75
2022/11/19 05:04:14;;;;;;;12.88;7.43;;;;;;;-5.20;100.00;100815.19;5105987;27;20063;-74
2022/11/19 05:06:41;;;;;;;8.63;6.45;;;;;;;-5.19;100.00;100819.50;5091182;28;20050;-77
2022/11/19 05:09:08;;;;;;;10.30;6.85;;;;;;;-5.21;100.00;100811.75;5095373;28;20043;-79
2022/11/19 05:11:34;;;;;;;10.30;6.57;;;;;;;-5.19;100.00;100806.75;5113914;27;20115;-75
2022/11/19 05:14:01;;;;;;;10.83;6.37;;;;;;;-5.20;100.00;100807.53;5114183;27;20059;-76
2022/11/19 05:16:27;;;;;;;10.87;6.90;;;;;;;-5.19;100.00;100812.75;5116212;27;20039;-78
2022/11/19 05:18:54;;;;;;;8.33;6.00;;;;;;;-5.16;100.00;100812.03;5110462;27;20048;-78
2022/11/19 05:21:20;;;;;;;8.55;6.55;;;;;;;-5.16;100.00;100807.81;5110391;28;20046;-75
2022/11/19 05:23:47;;;;;;;9.15;6.50;;;;;;;-5.15;100.00;100814.66;5113285;27;20097;-77
2022/11/19 05:26:13;;;;;;;12.75;6.63;;;;;;;-5.17;100.00;100810.28;5097002;28;20135;-77
2022/11/19 05:28:40;;;;;;;10.87;7.57;;;;;;;-5.16;100.00;100812.03;5100251;28;20050;-77
2022/11/19 05:31:07;;;;;;;12.23;7.43;;;;;;;-5.21;100.00;100809.22;5086364;28;20482;-77
2022/11/19 05:33:34;;;;;;;12.32;7.00;;;;;;;-5.22;100.00;100802.34;5110258;28;20051;-78
2022/11/19 05:36:00;;;;;;;14.60;7.32;;;;;;;-5.22;100.00;100802.34;5087293;28;20040;-74
2022/11/19 05:38:27;;;;;;;12.50;7.47;;;;;;;-5.21;100.00;100803.25;5114040;27;20130;-75
2022/11/19 05:40:54;;;;;;;13.38;7.05;;;;;;;-5.25;100.00;100798.72;5111277;27;20088;-75
2022/11/19 05:43:23;;;;;;;8.40;5.77;;;;;;;-5.25;100.00;100801.28;5111411;28;20073;-76
2022/11/19 05:45:50;;;;;;;10.63;6.60;;;;;;;-5.22;100.00;100806.56;5106598;28;20413;-76
2022/11/19 05:48:17;;;;;;;13.75;6.88;;;;;;;-5.21;100.00;100808.34;5094035;28;20043;-77
2022/11/19 05:50:43;;;;;;;10.73;6.97;;;;;;;-5.16;100.00;100812.03;5103644;28;20473;-77
2022/11/19 05:53:10;;;;;;;10.53;6.80;;;;;;;-5.19;100.00;100816.94;5110937;28;21337;-78
2022/11/19 05:55:37;;;;;;;14.63;7.50;;;;;;;-5.18;100.00;100816.16;5093430;28;20135;-79
2022/11/19 05:58:04;;;;;;;10.98;6.15;;;;;;;-5.20;100.00;100808.44;5109966;28;20044;-77
2022/11/19 06:00:31;;;;;;;11.90;7.43;;;;;;;-5.21;100.00;100814.31;5087120;28;20046;-78
2022/11/19 06:02:58;;;;;;;10.63;7.10;;;;;;;-5.24;100.00;100818.34;5091249;28;20588;-78
2022/11/19 06:05:24;;;;;;;13.07;6.33;;;;;;;-5.22;100.00;100820.19;5111322;28;20122;-75
2022/11/19 06:07:51;;;;;;;10.33;6.57;;;;;;;-5.21;100.00;100834.72;5104413;28;20031;-77
2022/11/19 06:10:18;;;;;;;11.10;7.73;;;;;;;-5.23;100.00;100832.88;5090642;28;20043;-77
2022/11/19 06:12:44;;;;;;;11.27;5.93;;;;;;;-5.25;100.00;100842.09;5109239;28;20040;-76
2022/11/19 06:15:11;;;;;;;13.13;7.60;;;;;;;-5.26;100.00;100837.81;5107951;27;20116;-76
2022/11/19 06:17:37;;;;;;;12.17;6.90;;;;;;;-5.27;100.00;100836.91;5109281;28;20054;-79
2022/11/19 06:20:07;;;;;;;11.83;7.00;;;;;;;-5.27;100.00;100844.56;5110042;27;20046;-80
2022/11/19 06:22:35;;;;;;;10.10;6.13;;;;;;;-5.27;100.00;100852.22;5110982;27;20110;-78
2022/11/19 06:25:01;;;;;;;9.63;5.40;;;;;;;-5.29;100.00;100847.84;5126944;27;20039;-78
2022/11/19 06:27:28;;;;;;;11.37;6.23;;;;;;;-5.31;100.00;100847.75;5114905;28;20067;-77
2022/11/19 06:29:55;;;;;;;11.13;6.00;;;;;;;-5.28;100.00;100852.16;5114282;27;20074;-76
2022/11/19 06:32:21;;;;;;;12.55;6.85;;;;;;;-5.27;100.00;100859.03;5092858;28;20043;-77
2022/11/19 06:34:48;;;;;;;11.47;6.10;;;;;;;-5.27;100.00;100859.03;5107110;28;20595;-75
2022/11/19 06:37:14;;;;;;;12.77;7.10;;;;;;;-5.28;100.00;100860.72;5109420;28;20122;-77
2022/11/19 06:39:41;;;;;;;11.47;5.93;;;;;;;-5.27;100.00;100869.22;5090346;28;20067;-79
2022/11/19 06:44:52;;;;;;;7.00;5.50;;;;;;;-5.26;100.00;100864.22;5107144;28;20118;-78
2022/11/19 06:47:18;;;;;;;12.07;6.65;;;;;;;-5.28;100.00;100864.91;5108222;28;20040;-75
2022/11/19 06:49:45;;;;;;;8.77;6.55;;;;;;;-5.30;100.00;100869.06;5091542;27;20101;-77
2022/11/19 06:52:11;;;;;;;11.52;6.70;;;;;;;-5.30;100.00;100880.13;5108668;28;20104;-79
2022/11/19 06:54:38;;;;;;;9.37;6.43;;;;;;;-5.28;100.00;100877.66;5106560;28;20040;-77
2022/11/19 06:57:04;;;;;;;14.27;7.37;;;;;;;-5.28;100.00;100878.56;5089984;28;20042;-81
2022/11/19 06:59:31;;;;;;;12.00;6.95;;;;;;;-5.27;100.00;100872.66;5099240;28;20237;-75
2022/11/19 07:01:57;;;;;;;7.00;5.40;;;;;;;-5.21;100.00;100874.69;5090350;28;20146;-76
2022/11/19 07:04:24;;;;;;;8.98;5.43;;;;;;;-5.11;100.00;100878.66;5089552;28;20044;-76
2022/11/19 07:06:51;;;;;;;22.33;7.63;;;;;;;-5.04;100.00;100879.09;5109125;28;20119;-79
2022/11/19 07:09:17;;;;;;;9.67;6.27;;;;;;;-4.98;100.00;100878.56;5091719;28;20058;-77
2022/11/19 07:11:44;;;;;;;11.60;6.60;;;;;;;-4.92;100.00;100880.59;5110598;28;20043;-76
2022/11/19 07:14:10;;;;;;;9.60;5.60;;;;;;;-4.92;100.00;100889.13;5110375;28;20050;-75
2022/11/19 07:16:37;;;;;;;9.60;6.15;;;;;;;-4.95;100.00;100882.97;5092864;28;20118;-75
2022/11/19 07:19:07;;;;;;;14.33;7.67;;;;;;;-4.99;100.00;100889.59;5108031;28;20093;-74
2022/11/19 07:21:34;;;;;;;11.10;7.13;;;;;;;-5.02;100.00;100895.41;5106156;28;20055;-76
2022/11/19 07:24:07;;;;;;;8.45;5.75;;;;;;;-5.00;100.00;100901.44;5108116;28;20075;-76
2022/11/19 07:26:35;;;;;;;8.73;5.88;;;;;;;-5.02;100.00;100907.25;5106235;28;20126;-76
2022/11/19 07:29:06;;;;;;;9.70;5.38;;;;;;;-5.03;100.00;100911.50;5107347;28;20113;-77
2022/11/19 07:31:33;;;;;;;7.75;4.50;;;;;;;-5.00;100.00;100905.69;5106962;28;20035;-75
2022/11/19 07:34:00;;;;;;;10.40;6.67;;;;;;;-4.99;100.00;100903.22;5105232;28;20143;-79
2022/11/19 07:36:27;;;;;;;10.70;5.90;;;;;;;-4.93;100.00;100912.03;5105381;28;20232;-77
2022/11/19 07:38:53;;;;;;;10.57;6.32;;;;;;;-4.94;100.00;100912.81;5101517;28;20044;-77
2022/11/19 07:44:06;;;;;;;6.75;5.03;;;;;;;-5.00;100.00;100909.09;5085305;28;20088;-75
2022/11/19 07:46:33;;;;;;;6.80;4.85;;;;;;;-5.00;100.00;100904.00;5109282;28;20070;-80
2022/11/19 07:48:59;;;;;;;6.80;4.83;;;;;;;-4.92;100.00;100899.34;5113968;28;20055;-76
2022/11/19 07:51:26;;;;;;;8.73;6.03;;;;;;;-4.91;100.00;100896.00;5108232;28;20540;-76
2022/11/19 07:53:55;;;;;;;8.80;5.20;;;;;;;-4.85;100.00;100896.38;5108366;28;20495;-76
2022/11/19 07:56:21;;;;;;;8.30;5.55;;;;;;;-4.78;100.00;100900.13;5109565;28;20092;-75
2022/11/19 07:58:48;;;;;;;9.38;6.53;;;;;;;-4.73;100.00;100906.41;5111209;28;20039;-76
2022/11/19 08:01:18;;;;;;;7.63;5.75;;;;;;;-4.69;100.00;100907.44;5108577;28;20110;-75
2022/11/19 08:03:47;;;;;;;8.38;5.20;;;;;;;-4.65;100.00;100904.28;5109098;28;20079;-75
2022/11/19 08:06:16;;;;;;;6.85;5.05;;;;;;;-4.61;100.00;100911.31;5108766;28;20761;-76
2022/11/19 08:08:44;;;;;;;8.40;5.18;;;;;;;-4.58;100.00;100908.06;5121115;27;20067;-74
2022/11/19 08:11:13;;;;;;;11.65;6.43;;;;;;;-4.55;100.00;100900.53;5093268;28;20071;-75
2022/11/19 08:13:41;;;;;;;9.32;6.32;;;;;;;-4.54;100.00;100904.88;5111740;28;20050;-76
2022/11/19 08:18:10;;;;;;;9.30;6.13;;;;;;;-4.51;100.00;100910.13;5112678;27;20501;-76
2022/11/19 08:19:08;;;;;;;11.88;6.25;;;;;;;-4.49;100.00;100900.91;5109778;27;20044;-76
2022/11/19 08:21:41;;;;;;;13.77;6.53;;;;;;;-4.45;100.00;100918.16;5093654;28;20132;-79
2022/11/19 08:24:09;;;;;;;14.02;6.82;;;;;;;-4.43;100.00;100900.34;5106256;28;20052;-77
2022/11/19 08:26:36;;;;;;;13.13;6.30;;;;;;;-4.40;100.00;100914.19;5109836;28;20050;-79
2022/11/19 08:29:04;;;;;;;12.05;6.53;;;;;;;-4.37;100.00;100906.72;5111646;27;20040;-75
2022/11/19 08:31:31;;;;;;;10.05;6.72;;;;;;;-4.34;100.00;100913.63;5095385;27;20055;-79
2022/11/19 08:33:58;;;;;;;9.02;6.43;;;;;;;-4.39;100.00;100913.41;5111540;27;20345;-81
2022/11/19 08:36:24;;;;;;;9.45;6.07;;;;;;;-4.40;100.00;100903.97;5115464;27;20039;-77
2022/11/19 08:38:57;;;;;;;11.65;6.85;;;;;;;-4.43;100.00;100911.47;5111265;27;20056;-78
2022/11/19 08:44:09;;;;;;;7.82;5.15;;;;;;;-4.40;100.00;100911.63;5110381;28;20045;-76
2022/11/19 08:46:37;;;;;;;8.98;6.03;;;;;;;-4.35;100.00;100915.31;5093850;28;20081;-79
2022/11/19 08:49:04;;;;;;;13.00;6.63;;;;;;;-4.30;100.00;100909.56;5109649;28;20031;-77
2022/11/19 08:51:31;;;;;;;9.30;6.32;;;;;;;-4.21;100.00;100913.53;5110202;27;20043;-75
2022/11/19 08:53:58;;;;;;;11.57;6.25;;;;;;;-4.18;100.00;100911.13;5110401;28;20108;-81
2022/11/19 08:56:25;;;;;;;8.40;6.13;;;;;;;-4.15;100.00;100907.88;5108042;28;20044;-77
2022/11/19 08:58:53;;;;;;;11.35;7.65;;;;;;;-4.11;100.00;100916.59;5110289;27;20050;-75
2022/11/19 09:01:20;;;;;;;10.80;5.85;;;;;;;-4.08;100.00;100909.06;5108699;27;20047;-77
2022/11/19 09:03:47;;;;;;;12.77;6.43;;;;;;;-4.02;100.00;100906.84;5126135;27;20047;-75
2022/11/19 09:06:14;;;;;;;7.45;5.28;;;;;;;-3.98;100.00;100911.34;5108073;28;20096;-75
2022/11/19 09:08:41;;;;;;;10.10;6.28;;;;;;;-3.93;100.00;100922.69;5094729;27;20043;-78
2022/11/19 09:11:14;;;;;;;9.95;7.90;;;;;;;-3.88;100.00;100917.84;5111078;27;20059;-78
2022/11/19 09:13:41;;;;;;;9.25;6.80;;;;;;;-3.84;100.00;100920.63;5109430;28;20086;-82
2022/11/19 09:16:09;;;;;;;9.52;6.20;;;;;;;-3.79;100.00;100922.53;5108332;28;20657;-76
2022/11/19 09:18:37;;;;;;;11.82;6.50;;;;;;;-3.74;100.00;100921.13;5109217;27;20055;-77
2022/11/19 09:21:05;;;;;;;12.52;6.40;;;;;;;-3.68;100.00;100911.22;5110154;27;20130;-84
2022/11/19 09:23:31;;;;;;;12.55;6.68;;;;;;;-3.63;100.00;100909.78;5111194;28;20062;-78
2022/11/19 09:26:12;;;;;;;11.70;6.78;;;;;;;-3.61;100.00;100910.75;5111453;28;20099;-77
2022/11/19 09:28:38;;;;;;;12.85;7.97;;;;;;;-3.56;100.00;100916.09;5108195;27;20040;-77
2022/11/19 09:31:13;;;;;;;11.30;6.65;;;;;;;-3.50;100.00;100914.72;5106048;27;20048;-76
2022/11/19 09:33:42;;;;;;;13.00;6.22;;;;;;;-3.40;100.00;100925.44;5109495;27;20108;-76
2022/11/19 09:36:10;;;;;;;12.75;7.32;;;;;;;-3.37;99.75;100921.38;5107129;28;20075;-76
2022/11/19 09:38:38;;;;;;;13.05;7.53;;;;;;;-3.32;99.40;100925.03;5110859;27;20066;-79
2022/11/19 09:41:34;;;;;;;11.35;7.05;;;;;;;-3.26;99.90;100927.06;5111756;28;20032;-80
2022/11/19 09:44:13;;;;;;;9.10;5.30;;;;;;;-3.20;100.00;100936.72;5125308;27;20054;-76
2022/11/19 09:47:07;;;;;;;11.15;6.70;;;;;;;-3.15;99.59;100925.03;5113721;27;20136;-75
2022/11/19 09:50:21;;;;;;;8.18;6.30;;;;;;;-3.10;98.20;100917.56;5111040;27;20046;-77
2022/11/19 09:52:56;;;;;;;11.38;6.22;;;;;;;-3.03;98.75;100917.09;5104623;28;20409;-78
2022/11/19 09:55:32;;;;;;;11.00;6.20;;;;;;;-2.94;99.29;100901.31;5086400;28;20044;-79
2022/11/19 09:58:00;;;;;;;8.35;5.47;;;;;;;-2.90;98.70;100900.66;5110737;28;20036;-76
2022/11/19 10:00:30;;;;;;;8.43;6.18;;;;;;;-2.79;98.06;100901.19;5120746;27;20111;-78
2022/11/19 10:02:59;;;;;;;7.63;6.38;;;;;;;-2.74;97.63;100897.16;5121856;27;20099;-79
2022/11/19 10:06:04;;;;;;;8.57;6.35;;;;;;;-2.71;97.98;100902.44;5117811;27;20040;-75
2022/11/19 10:09:23;;;;;;;11.15;7.32;;;;;;;-2.67;97.53;100904.38;5113698;28;20174;-75
2022/11/19 10:12:40;;;;;;;9.57;6.57;;;;;;;-2.60;96.72;100897.84;5050154;28;20088;-78
2022/11/19 10:15:20;;;;;;;8.57;5.65;;;;;;;-2.58;96.24;100886.88;5079716;27;20134;-76
2022/11/19 10:18:00;;;;;;;8.85;5.22;;;;;;;-2.53;95.00;100884.50;5106231;28;20092;-76
2022/11/19 10:20:53;;;;;;;10.55;4.47;;;;;;;-2.46;95.43;100889.13;5107605;27;20677;-76
2022/11/19 10:23:39;;;;;;;9.57;5.20;;;;;;;-2.41;94.21;100889.31;5109045;28;20048;-76
2022/11/19 10:26:14;;;;;;;6.63;4.53;;;;;;;-2.39;94.25;100891.16;5110159;28;20133;-76
2022/11/19 10:28:51;;;;;;;7.72;5.65;;;;;;;-2.40;94.23;100891.09;5109261;28;20043;-77
2022/11/19 10:31:36;;;;;;;6.85;4.85;;;;;;;-2.35;94.53;100890.53;5091885;28;20477;-79
2022/11/19 10:34:31;;;;;;;8.43;4.60;;;;;;;-2.31;93.32;100890.66;5108731;28;20044;-76
2022/11/19 10:37:03;;;;;;;9.05;5.60;;;;;;;-2.29;93.70;100894.16;5111439;28;20040;-77
2022/11/19 10:39:42;;;;;;;13.95;6.65;;;;;;;-2.21;93.79;100898.84;5119289;27;20067;-78
2022/11/19 10:42:40;;;;;;;10.38;6.32;;;;;;;-2.10;93.96;100894.22;5107043;28;20047;-78
2022/11/19 10:45:19;;;;;;;12.98;6.15;;;;;;;-2.06;92.31;100891.00;5110338;28;20485;-80
2022/11/19 10:48:08;;;;;;;12.15;6.43;;;;;;;-1.98;91.04;100893.03;5111070;28;20131;-76
2022/11/19 10:50:34;;;;;;;10.95;6.85;;;;;;;-1.98;91.10;100890.44;5108078;28;20111;-76
2022/11/19 10:53:32;;;;;;;9.35;6.22;;;;;;;-2.01;90.88;100886.97;5111766;28;20045;-76
2022/11/19 10:56:06;;;;;;;9.95;6.38;;;;;;;-2.03;91.31;100887.69;5106468;28;20529;-76
2022/11/19 10:58:59;;;;;;;9.27;5.43;;;;;;;-2.00;90.33;100880.13;5112017;28;20050;-76
2022/11/19 11:01:33;;;;;;;14.90;8.90;;;;;;;-1.94;89.61;100884.66;5112357;27;20039;-76
2022/11/19 11:04:27;;;;;;;7.45;5.43;;;;;;;-1.88;87.42;100872.09;5108567;28;20376;-77
2022/11/19 11:07:05;;;;;;;7.40;5.27;;;;;;;-1.85;88.56;100873.13;5108071;28;20741;-79
2022/11/19 11:09:36;;;;;;;6.85;6.07;;;;;;;-1.85;88.15;100868.00;5103114;28;20392;-76
2022/11/19 11:15:25;;;;;;;8.07;5.82;;;;;;;-1.79;89.01;100867.38;5110211;28;20036;-79
2022/11/19 11:18:07;;;;;;;9.27;4.45;;;;;;;-1.77;88.20;100865.78;5106576;28;20427;-82
2022/11/19 11:20:36;;;;;;;7.50;4.90;;;;;;;-1.76;88.62;100864.06;5105797;28;20427;-77
2022/11/19 11:23:15;;;;;;;10.15;5.32;;;;;;;-1.64;88.35;100858.59;5107038;28;20521;-76
2022/11/19 11:26:05;;;;;;;9.73;7.20;;;;;;;-1.53;86.70;100854.81;5106165;28;20035;-79
2022/11/19 11:28:33;;;;;;;8.32;5.50;;;;;;;-1.38;86.66;100852.06;5090684;28;20134;-78
2022/11/19 11:31:08;;;;;;;8.80;6.10;;;;;;;-1.33;86.68;100843.72;5089865;28;20131;-79
2022/11/19 11:33:39;;;;;;;8.38;6.18;;;;;;;-1.29;86.80;100848.97;5090154;28;20043;-79
2022/11/19 11:36:14;;;;;;;6.85;5.63;;;;;;;-1.28;85.76;100846.47;5107856;28;20043;-77
2022/11/19 11:38:47;;;;;;;9.25;5.72;;;;;;;-1.21;85.14;100840.78;5109118;28;20039;-76
2022/11/19 11:41:32;;;;;;;7.32;5.68;;;;;;;-1.20;85.54;100845.13;5107776;28;20067;-79
2022/11/19 11:44:05;;;;;;;8.52;5.28;;;;;;;-1.23;85.50;100839.84;5090201;28;20347;-77
2022/11/19 11:47:31;;;;;;;7.15;4.50;;;;;;;-1.23;85.59;100839.84;5111422;28;20521;-79
2022/11/19 11:50:15;;;;;;;8.93;5.05;;;;;;;-1.24;85.72;100834.63;5105265;28;20067;-79
2022/11/19 11:52:47;;;;;;;9.73;5.55;;;;;;;-1.20;86.53;100832.28;5102540;28;20036;-77
2022/11/19 11:55:23;;;;;;;7.95;5.00;;;;;;;-1.10;86.25;100828.38;5110114;28;20350;-79
2022/11/19 11:57:57;;;;;;;11.75;6.35;;;;;;;-1.02;85.84;100824.44;5114634;28;20119;-80
2022/11/19 12:00:41;;;;;;;9.52;5.40;;;;;;;-0.94;85.50;100827.34;5125060;27;20074;-78
2022/11/19 12:03:18;;;;;;;9.40;5.50;;;;;;;-0.83;83.85;100817.47;5113145;28;20109;-75